sensor_id;sensor_type;location;lat;lon;timestamp;P1;durP1;ratioP1;P2;durP2;ratioP2
69317;SDS011;56457;52.190;4.440;2022-09-21T00:00:31;12.63;;;2.88;;
69317;SDS011;56457;52.190;4.440;2022-09-21T00:01:32;14.77;;;2.88;;
69317;SDS011;56457;52.190;4.440;2022-09-21T00:02:32;22.80;;;3.00;;
69317;SDS011;56457;52.190;4.440;2022-09-21T00:03:33;14.02;;;3.05;;
69317;SDS011;56457;52.190;4.440;2022-09-21T00:04:35;13.57;;;2.67;;
69317;SDS011;56457;52.190;4.440;2022-09-21T00:05:35;9.18;;;2.97;;
69317;SDS011;56457;52.190;4.440;2022-09-21T00:06:36;8.23;;;2.50;;
69317;SDS011;56457;52.190;4.440;2022-09-21T00:07:36;11.68;;;2.75;;
69317;SDS011;56457;52.190;4.440;2022-09-21T00:08:37;12.95;;;3.08;;
69317;SDS011;56457;52.190;4.440;2022-09-21T00:09:37;21.15;;;3.15;;
69317;SDS011;56457;52.190;4.440;2022-09-21T00:10:38;12.63;;;2.47;;
69317;SDS011;56457;52.190;4.440;2022-09-21T00:11:39;9.50;;;2.70;;
69317;SDS011;56457;52.190;4.440;2022-09-21T00:12:40;8.70;;;2.63;;
69317;SDS011;56457;52.190;4.440;2022-09-21T00:13:42;11.18;;;2.75;;
69317;SDS011;56457;52.190;4.440;2022-09-21T00:15:43;13.37;;;3.00;;
69317;SDS011;56457;52.190;4.440;2022-09-21T00:16:44;13.60;;;3.00;;
69317;SDS011;56457;52.190;4.440;2022-09-21T00:17:45;13.60;;;2.67;;
69317;SDS011;56457;52.190;4.440;2022-09-21T00:18:48;19.33;;;2.53;;
69317;SDS011;56457;52.190;4.440;2022-09-21T00:19:49;16.90;;;2.85;;
69317;SDS011;56457;52.190;4.440;2022-09-21T00:20:49;20.85;;;2.67;;
69317;SDS011;56457;52.190;4.440;2022-09-21T00:21:55;24.60;;;2.92;;
69317;SDS011;56457;52.190;4.440;2022-09-21T00:22:56;7.25;;;2.35;;
69317;SDS011;56457;52.190;4.440;2022-09-21T00:23:57;10.57;;;2.58;;
69317;SDS011;56457;52.190;4.440;2022-09-21T00:24:58;13.30;;;2.80;;
69317;SDS011;56457;52.190;4.440;2022-09-21T00:26:09;12.98;;;2.78;;
69317;SDS011;56457;52.190;4.440;2022-09-21T00:27:14;18.27;;;2.75;;
69317;SDS011;56457;52.190;4.440;2022-09-21T00:28:14;11.23;;;2.97;;
69317;SDS011;56457;52.190;4.440;2022-09-21T00:29:15;15.48;;;2.85;;
69317;SDS011;56457;52.190;4.440;2022-09-21T00:30:16;15.43;;;2.90;;
69317;SDS011;56457;52.190;4.440;2022-09-21T00:31:17;27.35;;;2.97;;
69317;SDS011;56457;52.190;4.440;2022-09-21T00:32:17;20.45;;;3.28;;
69317;SDS011;56457;52.190;4.440;2022-09-21T00:33:19;11.80;;;2.78;;
69317;SDS011;56457;52.190;4.440;2022-09-21T00:34:19;14.85;;;3.00;;
69317;SDS011;56457;52.190;4.440;2022-09-21T00:35:20;21.00;;;3.13;;
69317;SDS011;56457;52.190;4.440;2022-09-21T00:36:21;10.02;;;2.63;;
69317;SDS011;56457;52.190;4.440;2022-09-21T00:37:23;14.18;;;3.25;;
69317;SDS011;56457;52.190;4.440;2022-09-21T00:38:24;16.92;;;2.22;;
69317;SDS011;56457;52.190;4.440;2022-09-21T00:39:24;15.75;;;3.33;;
69317;SDS011;56457;52.190;4.440;2022-09-21T00:40:25;16.23;;;3.08;;
69317;SDS011;56457;52.190;4.440;2022-09-21T00:41:26;24.33;;;3.30;;
69317;SDS011;56457;52.190;4.440;2022-09-21T00:42:32;16.60;;;2.38;;
69317;SDS011;56457;52.190;4.440;2022-09-21T00:43:34;16.10;;;2.83;;
69317;SDS011;56457;52.190;4.440;2022-09-21T00:44:36;20.02;;;3.40;;
69317;SDS011;56457;52.190;4.440;2022-09-21T00:45:36;25.48;;;3.72;;
69317;SDS011;56457;52.190;4.440;2022-09-21T00:46:37;28.83;;;2.90;;
69317;SDS011;56457;52.190;4.440;2022-09-21T00:47:40;19.85;;;2.53;;
69317;SDS011;56457;52.190;4.440;2022-09-21T00:48:42;14.07;;;3.08;;
69317;SDS011;56457;52.190;4.440;2022-09-21T00:49:43;20.83;;;3.35;;
69317;SDS011;56457;52.190;4.440;2022-09-21T00:50:49;16.48;;;2.97;;
69317;SDS011;56457;52.190;4.440;2022-09-21T00:51:53;20.88;;;3.38;;
69317;SDS011;56457;52.190;4.440;2022-09-21T00:52:56;17.38;;;2.90;;
69317;SDS011;56457;52.190;4.440;2022-09-21T00:53:59;23.33;;;3.13;;
69317;SDS011;56457;52.190;4.440;2022-09-21T00:55:08;22.85;;;3.33;;
69317;SDS011;56457;52.190;4.440;2022-09-21T00:56:12;13.43;;;2.95;;
69317;SDS011;56457;52.190;4.440;2022-09-21T00:57:14;9.45;;;2.65;;
69317;SDS011;56457;52.190;4.440;2022-09-21T00:58:18;16.92;;;3.08;;
69317;SDS011;56457;52.190;4.440;2022-09-21T00:59:26;14.18;;;2.83;;
69317;SDS011;56457;52.190;4.440;2022-09-21T01:00:29;17.13;;;3.33;;
69317;SDS011;56457;52.190;4.440;2022-09-21T01:01:30;19.70;;;3.05;;
69317;SDS011;56457;52.190;4.440;2022-09-21T01:02:30;13.40;;;3.53;;
69317;SDS011;56457;52.190;4.440;2022-09-21T01:03:31;15.73;;;2.53;;
69317;SDS011;56457;52.190;4.440;2022-09-21T01:04:32;12.93;;;2.65;;
69317;SDS011;56457;52.190;4.440;2022-09-21T01:06:34;16.53;;;2.73;;
69317;SDS011;56457;52.190;4.440;2022-09-21T01:07:39;15.30;;;2.72;;
69317;SDS011;56457;52.190;4.440;2022-09-21T01:08:44;14.50;;;2.97;;
69317;SDS011;56457;52.190;4.440;2022-09-21T01:09:52;12.52;;;2.83;;
69317;SDS011;56457;52.190;4.440;2022-09-21T01:12:28;16.02;;;2.78;;
69317;SDS011;56457;52.190;4.440;2022-09-21T01:15:56;17.05;;;3.00;;
69317;SDS011;56457;52.190;4.440;2022-09-21T01:28:12;8.68;;;2.70;;
69317;SDS011;56457;52.190;4.440;2022-09-21T01:30:22;15.05;;;2.60;;
69317;SDS011;56457;52.190;4.440;2022-09-21T01:31:25;18.92;;;2.88;;
69317;SDS011;56457;52.190;4.440;2022-09-21T01:32:41;13.82;;;3.15;;
69317;SDS011;56457;52.190;4.440;2022-09-21T01:33:47;18.35;;;3.35;;
69317;SDS011;56457;52.190;4.440;2022-09-21T01:34:54;16.92;;;2.97;;
69317;SDS011;56457;52.190;4.440;2022-09-21T01:36:03;12.88;;;2.60;;
69317;SDS011;56457;52.190;4.440;2022-09-21T01:37:09;17.58;;;2.88;;
69317;SDS011;56457;52.190;4.440;2022-09-21T01:38:37;9.75;;;2.60;;
69317;SDS011;56457;52.190;4.440;2022-09-21T01:39:38;13.70;;;3.38;;
69317;SDS011;56457;52.190;4.440;2022-09-21T01:40:42;16.00;;;2.75;;
69317;SDS011;56457;52.190;4.440;2022-09-21T01:41:49;15.38;;;2.78;;
69317;SDS011;56457;52.190;4.440;2022-09-21T01:42:51;13.68;;;2.35;;
69317;SDS011;56457;52.190;4.440;2022-09-21T01:43:56;9.82;;;3.08;;
69317;SDS011;56457;52.190;4.440;2022-09-21T01:45:02;15.05;;;3.20;;
69317;SDS011;56457;52.190;4.440;2022-09-21T01:46:08;11.55;;;2.75;;
69317;SDS011;56457;52.190;4.440;2022-09-21T01:47:20;13.30;;;2.70;;
69317;SDS011;56457;52.190;4.440;2022-09-21T01:48:24;15.77;;;3.08;;
69317;SDS011;56457;52.190;4.440;2022-09-21T01:49:35;13.25;;;2.67;;
69317;SDS011;56457;52.190;4.440;2022-09-21T01:50:40;12.82;;;2.70;;
69317;SDS011;56457;52.190;4.440;2022-09-21T01:51:49;16.92;;;2.85;;
69317;SDS011;56457;52.190;4.440;2022-09-21T01:52:57;9.85;;;2.60;;
69317;SDS011;56457;52.190;4.440;2022-09-21T01:54:05;15.05;;;2.47;;
69317;SDS011;56457;52.190;4.440;2022-09-21T01:55:23;14.07;;;3.03;;
69317;SDS011;56457;52.190;4.440;2022-09-21T01:56:46;12.48;;;2.63;;
69317;SDS011;56457;52.190;4.440;2022-09-21T01:57:58;14.27;;;2.70;;
69317;SDS011;56457;52.190;4.440;2022-09-21T02:00:21;19.90;;;3.97;;
69317;SDS011;56457;52.190;4.440;2022-09-21T02:01:23;16.90;;;3.13;;
69317;SDS011;56457;52.190;4.440;2022-09-21T02:02:44;15.00;;;2.72;;
69317;SDS011;56457;52.190;4.440;2022-09-21T02:04:00;14.07;;;2.95;;
69317;SDS011;56457;52.190;4.440;2022-09-21T02:05:07;13.05;;;2.35;;
69317;SDS011;56457;52.190;4.440;2022-09-21T02:06:09;16.02;;;2.97;;
69317;SDS011;56457;52.190;4.440;2022-09-21T02:07:10;15.73;;;2.67;;
69317;SDS011;56457;52.190;4.440;2022-09-21T02:08:11;12.57;;;2.90;;
69317;SDS011;56457;52.190;4.440;2022-09-21T02:09:11;10.35;;;2.85;;
69317;SDS011;56457;52.190;4.440;2022-09-21T02:10:21;10.60;;;2.97;;
69317;SDS011;56457;52.190;4.440;2022-09-21T02:11:25;14.07;;;2.95;;
69317;SDS011;56457;52.190;4.440;2022-09-21T02:12:25;21.00;;;3.43;;
69317;SDS011;56457;52.190;4.440;2022-09-21T02:13:27;8.73;;;3.03;;
69317;SDS011;56457;52.190;4.440;2022-09-21T02:14:31;14.38;;;2.88;;
69317;SDS011;56457;52.190;4.440;2022-09-21T02:16:46;15.23;;;2.90;;
69317;SDS011;56457;52.190;4.440;2022-09-21T02:18:03;16.52;;;3.05;;
69317;SDS011;56457;52.190;4.440;2022-09-21T02:19:11;17.90;;;2.92;;
69317;SDS011;56457;52.190;4.440;2022-09-21T02:20:27;17.17;;;3.35;;
69317;SDS011;56457;52.190;4.440;2022-09-21T02:23:42;18.63;;;3.00;;
69317;SDS011;56457;52.190;4.440;2022-09-21T02:24:56;17.80;;;2.85;;
69317;SDS011;56457;52.190;4.440;2022-09-21T02:27:30;16.13;;;3.35;;
69317;SDS011;56457;52.190;4.440;2022-09-21T02:28:43;20.35;;;3.13;;
69317;SDS011;56457;52.190;4.440;2022-09-21T02:29:51;14.32;;;3.20;;
69317;SDS011;56457;52.190;4.440;2022-09-21T02:31:05;17.92;;;3.70;;
69317;SDS011;56457;52.190;4.440;2022-09-21T02:36:11;23.13;;;3.58;;
69317;SDS011;56457;52.190;4.440;2022-09-21T02:37:23;15.10;;;3.58;;
69317;SDS011;56457;52.190;4.440;2022-09-21T02:38:41;16.25;;;3.85;;
69317;SDS011;56457;52.190;4.440;2022-09-21T02:39:54;14.30;;;3.63;;
69317;SDS011;56457;52.190;4.440;2022-09-21T02:42:21;16.08;;;4.07;;
69317;SDS011;56457;52.190;4.440;2022-09-21T02:43:30;17.85;;;3.60;;
69317;SDS011;56457;52.190;4.440;2022-09-21T02:44:42;11.57;;;3.10;;
69317;SDS011;56457;52.190;4.440;2022-09-21T02:45:50;15.13;;;3.65;;
69317;SDS011;56457;52.190;4.440;2022-09-21T02:47:14;11.02;;;3.20;;
69317;SDS011;56457;52.190;4.440;2022-09-21T02:48:23;21.30;;;3.58;;
69317;SDS011;56457;52.190;4.440;2022-09-21T02:49:31;10.68;;;3.35;;
69317;SDS011;56457;52.190;4.440;2022-09-21T02:50:40;14.02;;;3.80;;
69317;SDS011;56457;52.190;4.440;2022-09-21T02:51:46;15.73;;;3.40;;
69317;SDS011;56457;52.190;4.440;2022-09-21T02:52:53;15.00;;;3.63;;
69317;SDS011;56457;52.190;4.440;2022-09-21T02:53:54;16.75;;;3.30;;
69317;SDS011;56457;52.190;4.440;2022-09-21T02:54:55;20.20;;;4.00;;
69317;SDS011;56457;52.190;4.440;2022-09-21T02:55:58;22.73;;;4.75;;
69317;SDS011;56457;52.190;4.440;2022-09-21T02:57:06;19.77;;;3.38;;
69317;SDS011;56457;52.190;4.440;2022-09-21T02:59:10;20.40;;;3.50;;
69317;SDS011;56457;52.190;4.440;2022-09-21T03:00:10;14.33;;;3.70;;
69317;SDS011;56457;52.190;4.440;2022-09-21T03:01:11;18.00;;;3.40;;
69317;SDS011;56457;52.190;4.440;2022-09-21T03:02:14;19.55;;;4.63;;
69317;SDS011;56457;52.190;4.440;2022-09-21T03:03:18;15.60;;;3.75;;
69317;SDS011;56457;52.190;4.440;2022-09-21T03:04:21;10.82;;;3.42;;
69317;SDS011;56457;52.190;4.440;2022-09-21T03:05:22;23.23;;;3.90;;
69317;SDS011;56457;52.190;4.440;2022-09-21T03:06:22;14.38;;;3.50;;
69317;SDS011;56457;52.190;4.440;2022-09-21T03:07:23;17.00;;;3.58;;
69317;SDS011;56457;52.190;4.440;2022-09-21T03:08:23;10.77;;;3.63;;
69317;SDS011;56457;52.190;4.440;2022-09-21T03:09:24;14.07;;;4.05;;
69317;SDS011;56457;52.190;4.440;2022-09-21T03:10:24;12.02;;;3.67;;
69317;SDS011;56457;52.190;4.440;2022-09-21T03:11:25;16.17;;;4.07;;
69317;SDS011;56457;52.190;4.440;2022-09-21T03:12:25;11.97;;;3.30;;
69317;SDS011;56457;52.190;4.440;2022-09-21T03:13:25;12.68;;;3.85;;
69317;SDS011;56457;52.190;4.440;2022-09-21T03:14:26;16.50;;;4.50;;
69317;SDS011;56457;52.190;4.440;2022-09-21T03:15:26;18.03;;;3.77;;
69317;SDS011;56457;52.190;4.440;2022-09-21T03:16:27;17.83;;;3.90;;
69317;SDS011;56457;52.190;4.440;2022-09-21T03:17:27;13.38;;;3.80;;
69317;SDS011;56457;52.190;4.440;2022-09-21T03:18:27;17.63;;;4.10;;
69317;SDS011;56457;52.190;4.440;2022-09-21T03:19:28;12.63;;;3.15;;
69317;SDS011;56457;52.190;4.440;2022-09-21T03:20:29;16.67;;;3.60;;
69317;SDS011;56457;52.190;4.440;2022-09-21T03:21:31;11.27;;;3.40;;
69317;SDS011;56457;52.190;4.440;2022-09-21T03:22:31;19.93;;;3.93;;
69317;SDS011;56457;52.190;4.440;2022-09-21T03:23:31;25.10;;;4.40;;
69317;SDS011;56457;52.190;4.440;2022-09-21T03:24:32;12.37;;;3.83;;
69317;SDS011;56457;52.190;4.440;2022-09-21T03:25:44;13.50;;;4.10;;
69317;SDS011;56457;52.190;4.440;2022-09-21T03:26:46;15.57;;;4.00;;
69317;SDS011;56457;52.190;4.440;2022-09-21T03:27:46;10.85;;;3.63;;
69317;SDS011;56457;52.190;4.440;2022-09-21T03:28:50;12.70;;;3.97;;
69317;SDS011;56457;52.190;4.440;2022-09-21T03:29:53;15.20;;;3.55;;
69317;SDS011;56457;52.190;4.440;2022-09-21T03:30:54;17.33;;;3.70;;
69317;SDS011;56457;52.190;4.440;2022-09-21T03:31:54;13.95;;;3.47;;
69317;SDS011;56457;52.190;4.440;2022-09-21T03:32:55;18.50;;;3.85;;
69317;SDS011;56457;52.190;4.440;2022-09-21T03:33:55;13.65;;;4.22;;
69317;SDS011;56457;52.190;4.440;2022-09-21T03:34:56;11.90;;;3.37;;
69317;SDS011;56457;52.190;4.440;2022-09-21T03:35:56;12.47;;;3.90;;
69317;SDS011;56457;52.190;4.440;2022-09-21T03:36:56;10.65;;;3.40;;
69317;SDS011;56457;52.190;4.440;2022-09-21T03:37:57;12.60;;;3.00;;
69317;SDS011;56457;52.190;4.440;2022-09-21T03:40:00;16.67;;;3.80;;
69317;SDS011;56457;52.190;4.440;2022-09-21T03:41:00;11.43;;;3.90;;
69317;SDS011;56457;52.190;4.440;2022-09-21T03:42:01;12.03;;;3.80;;
69317;SDS011;56457;52.190;4.440;2022-09-21T03:43:01;13.80;;;3.58;;
69317;SDS011;56457;52.190;4.440;2022-09-21T03:44:02;22.77;;;3.40;;
69317;SDS011;56457;52.190;4.440;2022-09-21T03:45:04;15.27;;;3.40;;
69317;SDS011;56457;52.190;4.440;2022-09-21T03:46:04;24.25;;;4.38;;
69317;SDS011;56457;52.190;4.440;2022-09-21T03:47:05;10.30;;;3.50;;
69317;SDS011;56457;52.190;4.440;2022-09-21T03:48:05;10.93;;;3.58;;
69317;SDS011;56457;52.190;4.440;2022-09-21T03:49:06;11.73;;;3.42;;
69317;SDS011;56457;52.190;4.440;2022-09-21T03:50:07;21.93;;;4.20;;
69317;SDS011;56457;52.190;4.440;2022-09-21T03:51:08;19.98;;;3.72;;
69317;SDS011;56457;52.190;4.440;2022-09-21T03:52:08;12.17;;;3.93;;
69317;SDS011;56457;52.190;4.440;2022-09-21T03:53:09;14.30;;;3.42;;
69317;SDS011;56457;52.190;4.440;2022-09-21T03:54:10;10.32;;;3.90;;
69317;SDS011;56457;52.190;4.440;2022-09-21T03:55:10;11.50;;;3.50;;
69317;SDS011;56457;52.190;4.440;2022-09-21T03:56:10;23.10;;;4.17;;
69317;SDS011;56457;52.190;4.440;2022-09-21T03:57:11;21.57;;;4.13;;
69317;SDS011;56457;52.190;4.440;2022-09-21T03:58:11;21.77;;;4.13;;
69317;SDS011;56457;52.190;4.440;2022-09-21T03:59:12;17.48;;;3.55;;
69317;SDS011;56457;52.190;4.440;2022-09-21T04:00:12;14.25;;;3.92;;
69317;SDS011;56457;52.190;4.440;2022-09-21T04:01:13;14.98;;;3.42;;
69317;SDS011;56457;52.190;4.440;2022-09-21T04:02:14;28.27;;;5.40;;
69317;SDS011;56457;52.190;4.440;2022-09-21T04:03:15;17.33;;;3.80;;
69317;SDS011;56457;52.190;4.440;2022-09-21T04:04:16;16.93;;;3.53;;
69317;SDS011;56457;52.190;4.440;2022-09-21T04:05:16;19.98;;;4.05;;
69317;SDS011;56457;52.190;4.440;2022-09-21T04:06:17;17.10;;;3.60;;
69317;SDS011;56457;52.190;4.440;2022-09-21T04:07:17;22.37;;;4.03;;
69317;SDS011;56457;52.190;4.440;2022-09-21T04:08:17;17.70;;;3.63;;
69317;SDS011;56457;52.190;4.440;2022-09-21T04:09:18;15.27;;;3.83;;
69317;SDS011;56457;52.190;4.440;2022-09-21T04:10:19;13.23;;;3.50;;
69317;SDS011;56457;52.190;4.440;2022-09-21T04:11:21;20.23;;;3.50;;
69317;SDS011;56457;52.190;4.440;2022-09-21T04:12:22;20.15;;;3.88;;
69317;SDS011;56457;52.190;4.440;2022-09-21T04:13:22;20.57;;;3.87;;
69317;SDS011;56457;52.190;4.440;2022-09-21T04:14:23;16.17;;;3.50;;
69317;SDS011;56457;52.190;4.440;2022-09-21T04:15:24;15.10;;;3.47;;
69317;SDS011;56457;52.190;4.440;2022-09-21T04:16:24;15.77;;;3.97;;
69317;SDS011;56457;52.190;4.440;2022-09-21T04:17:26;17.42;;;3.78;;
69317;SDS011;56457;52.190;4.440;2022-09-21T04:18:27;19.35;;;3.70;;
69317;SDS011;56457;52.190;4.440;2022-09-21T04:19:27;15.15;;;3.25;;
69317;SDS011;56457;52.190;4.440;2022-09-21T04:20:28;18.63;;;4.40;;
69317;SDS011;56457;52.190;4.440;2022-09-21T04:21:28;14.70;;;3.35;;
69317;SDS011;56457;52.190;4.440;2022-09-21T04:22:29;13.77;;;4.00;;
69317;SDS011;56457;52.190;4.440;2022-09-21T04:23:30;20.98;;;3.67;;
69317;SDS011;56457;52.190;4.440;2022-09-21T04:24:31;21.48;;;4.25;;
69317;SDS011;56457;52.190;4.440;2022-09-21T04:25:31;18.97;;;3.47;;
69317;SDS011;56457;52.190;4.440;2022-09-21T04:26:33;20.05;;;4.20;;
69317;SDS011;56457;52.190;4.440;2022-09-21T04:27:34;31.05;;;3.80;;
69317;SDS011;56457;52.190;4.440;2022-09-21T04:28:35;15.53;;;3.83;;
69317;SDS011;56457;52.190;4.440;2022-09-21T04:29:35;18.50;;;3.63;;
69317;SDS011;56457;52.190;4.440;2022-09-21T04:30:36;16.13;;;4.28;;
69317;SDS011;56457;52.190;4.440;2022-09-21T04:31:36;16.40;;;3.88;;
69317;SDS011;56457;52.190;4.440;2022-09-21T04:32:37;16.42;;;3.90;;
69317;SDS011;56457;52.190;4.440;2022-09-21T04:33:37;10.70;;;3.73;;
69317;SDS011;56457;52.190;4.440;2022-09-21T04:34:38;23.63;;;3.80;;
69317;SDS011;56457;52.190;4.440;2022-09-21T04:35:38;22.90;;;4.03;;
69317;SDS011;56457;52.190;4.440;2022-09-21T04:36:39;18.02;;;4.65;;
69317;SDS011;56457;52.190;4.440;2022-09-21T04:37:39;20.55;;;4.20;;
69317;SDS011;56457;52.190;4.440;2022-09-21T04:38:40;19.83;;;3.75;;
69317;SDS011;56457;52.190;4.440;2022-09-21T04:39:40;20.92;;;3.72;;
69317;SDS011;56457;52.190;4.440;2022-09-21T04:40:41;20.90;;;4.00;;
69317;SDS011;56457;52.190;4.440;2022-09-21T04:41:41;16.15;;;3.50;;
69317;SDS011;56457;52.190;4.440;2022-09-21T04:42:42;16.07;;;3.30;;
69317;SDS011;56457;52.190;4.440;2022-09-21T04:43:43;23.80;;;4.37;;
69317;SDS011;56457;52.190;4.440;2022-09-21T04:44:44;17.50;;;4.22;;
69317;SDS011;56457;52.190;4.440;2022-09-21T04:45:44;13.85;;;3.13;;
69317;SDS011;56457;52.190;4.440;2022-09-21T04:46:45;18.60;;;3.77;;
69317;SDS011;56457;52.190;4.440;2022-09-21T04:47:45;23.45;;;3.45;;
69317;SDS011;56457;52.190;4.440;2022-09-21T04:48:46;17.73;;;3.53;;
69317;SDS011;56457;52.190;4.440;2022-09-21T04:49:47;22.52;;;4.10;;
69317;SDS011;56457;52.190;4.440;2022-09-21T04:50:47;21.20;;;3.80;;
69317;SDS011;56457;52.190;4.440;2022-09-21T04:51:49;14.63;;;3.58;;
69317;SDS011;56457;52.190;4.440;2022-09-21T04:52:49;20.98;;;4.28;;
69317;SDS011;56457;52.190;4.440;2022-09-21T04:53:51;10.10;;;3.50;;
69317;SDS011;56457;52.190;4.440;2022-09-21T04:54:51;24.80;;;4.63;;
69317;SDS011;56457;52.190;4.440;2022-09-21T04:55:52;16.52;;;3.78;;
69317;SDS011;56457;52.190;4.440;2022-09-21T04:56:53;18.00;;;3.63;;
69317;SDS011;56457;52.190;4.440;2022-09-21T04:57:53;21.40;;;4.17;;
69317;SDS011;56457;52.190;4.440;2022-09-21T04:58:54;14.57;;;3.70;;
69317;SDS011;56457;52.190;4.440;2022-09-21T04:59:54;16.25;;;3.75;;
69317;SDS011;56457;52.190;4.440;2022-09-21T05:00:54;13.25;;;4.20;;
69317;SDS011;56457;52.190;4.440;2022-09-21T05:01:55;15.82;;;3.38;;
69317;SDS011;56457;52.190;4.440;2022-09-21T05:02:56;13.32;;;3.22;;
69317;SDS011;56457;52.190;4.440;2022-09-21T05:03:57;12.77;;;3.97;;
69317;SDS011;56457;52.190;4.440;2022-09-21T05:05:00;19.63;;;4.40;;
69317;SDS011;56457;52.190;4.440;2022-09-21T05:06:01;13.15;;;3.75;;
69317;SDS011;56457;52.190;4.440;2022-09-21T05:07:02;14.23;;;3.65;;
69317;SDS011;56457;52.190;4.440;2022-09-21T05:08:03;14.33;;;3.90;;
69317;SDS011;56457;52.190;4.440;2022-09-21T05:09:03;22.13;;;3.90;;
69317;SDS011;56457;52.190;4.440;2022-09-21T05:10:22;17.08;;;3.85;;
69317;SDS011;56457;52.190;4.440;2022-09-21T05:11:22;12.93;;;3.53;;
69317;SDS011;56457;52.190;4.440;2022-09-21T05:13:24;14.80;;;3.87;;
69317;SDS011;56457;52.190;4.440;2022-09-21T05:14:24;12.57;;;3.20;;
69317;SDS011;56457;52.190;4.440;2022-09-21T05:15:25;17.80;;;3.50;;
69317;SDS011;56457;52.190;4.440;2022-09-21T05:16:25;16.43;;;3.70;;
69317;SDS011;56457;52.190;4.440;2022-09-21T05:17:26;17.90;;;3.47;;
69317;SDS011;56457;52.190;4.440;2022-09-21T05:18:27;20.33;;;3.85;;
69317;SDS011;56457;52.190;4.440;2022-09-21T05:19:28;11.75;;;3.25;;
69317;SDS011;56457;52.190;4.440;2022-09-21T05:20:29;21.13;;;4.37;;
69317;SDS011;56457;52.190;4.440;2022-09-21T05:21:29;14.67;;;3.70;;
69317;SDS011;56457;52.190;4.440;2022-09-21T05:22:30;13.65;;;3.72;;
69317;SDS011;56457;52.190;4.440;2022-09-21T05:23:31;15.00;;;4.00;;
69317;SDS011;56457;52.190;4.440;2022-09-21T05:24:32;18.17;;;3.83;;
69317;SDS011;56457;52.190;4.440;2022-09-21T05:25:32;11.27;;;3.60;;
69317;SDS011;56457;52.190;4.440;2022-09-21T05:26:32;17.30;;;4.07;;
69317;SDS011;56457;52.190;4.440;2022-09-21T05:27:33;16.08;;;3.53;;
69317;SDS011;56457;52.190;4.440;2022-09-21T05:28:33;19.93;;;3.93;;
69317;SDS011;56457;52.190;4.440;2022-09-21T05:29:34;18.25;;;4.60;;
69317;SDS011;56457;52.190;4.440;2022-09-21T05:30:35;12.27;;;3.65;;
69317;SDS011;56457;52.190;4.440;2022-09-21T05:31:37;14.63;;;3.70;;
69317;SDS011;56457;52.190;4.440;2022-09-21T05:32:53;19.77;;;4.55;;
69317;SDS011;56457;52.190;4.440;2022-09-21T05:33:58;14.73;;;3.83;;
69317;SDS011;56457;52.190;4.440;2022-09-21T05:35:21;13.52;;;3.72;;
69317;SDS011;56457;52.190;4.440;2022-09-21T05:38:10;19.92;;;4.30;;
69317;SDS011;56457;52.190;4.440;2022-09-21T05:39:16;18.77;;;4.13;;
69317;SDS011;56457;52.190;4.440;2022-09-21T05:40:17;15.85;;;4.38;;
69317;SDS011;56457;52.190;4.440;2022-09-21T05:41:18;17.10;;;4.30;;
69317;SDS011;56457;52.190;4.440;2022-09-21T05:42:18;23.15;;;4.22;;
69317;SDS011;56457;52.190;4.440;2022-09-21T05:43:19;27.15;;;3.90;;
69317;SDS011;56457;52.190;4.440;2022-09-21T05:44:20;19.23;;;4.38;;
69317;SDS011;56457;52.190;4.440;2022-09-21T05:45:20;18.05;;;4.75;;
69317;SDS011;56457;52.190;4.440;2022-09-21T05:47:54;19.85;;;4.78;;
69317;SDS011;56457;52.190;4.440;2022-09-21T05:49:02;19.65;;;5.05;;
69317;SDS011;56457;52.190;4.440;2022-09-21T05:51:37;23.58;;;5.78;;
69317;SDS011;56457;52.190;4.440;2022-09-21T05:53:08;23.17;;;5.35;;
69317;SDS011;56457;52.190;4.440;2022-09-21T05:54:20;16.33;;;4.35;;
69317;SDS011;56457;52.190;4.440;2022-09-21T05:56:05;21.70;;;5.10;;
69317;SDS011;56457;52.190;4.440;2022-09-21T05:57:15;20.50;;;4.22;;
69317;SDS011;56457;52.190;4.440;2022-09-21T05:59:03;28.55;;;3.90;;
69317;SDS011;56457;52.190;4.440;2022-09-21T06:00:11;19.20;;;4.00;;
69317;SDS011;56457;52.190;4.440;2022-09-21T06:04:24;21.70;;;4.60;;
69317;SDS011;56457;52.190;4.440;2022-09-21T06:05:25;17.27;;;4.70;;
69317;SDS011;56457;52.190;4.440;2022-09-21T06:06:25;17.70;;;4.10;;
69317;SDS011;56457;52.190;4.440;2022-09-21T06:07:26;24.27;;;5.37;;
69317;SDS011;56457;52.190;4.440;2022-09-21T06:08:26;18.58;;;4.50;;
69317;SDS011;56457;52.190;4.440;2022-09-21T06:09:27;16.25;;;4.13;;
69317;SDS011;56457;52.190;4.440;2022-09-21T06:10:29;20.17;;;4.28;;
69317;SDS011;56457;52.190;4.440;2022-09-21T06:11:33;19.80;;;4.32;;
69317;SDS011;56457;52.190;4.440;2022-09-21T06:12:33;21.92;;;4.65;;
69317;SDS011;56457;52.190;4.440;2022-09-21T06:13:35;17.33;;;3.63;;
69317;SDS011;56457;52.190;4.440;2022-09-21T06:14:36;27.52;;;4.72;;
69317;SDS011;56457;52.190;4.440;2022-09-21T06:15:37;18.27;;;4.20;;
69317;SDS011;56457;52.190;4.440;2022-09-21T06:16:40;21.50;;;4.65;;
69317;SDS011;56457;52.190;4.440;2022-09-21T06:17:42;35.63;;;5.93;;
69317;SDS011;56457;52.190;4.440;2022-09-21T06:18:42;19.40;;;4.77;;
69317;SDS011;56457;52.190;4.440;2022-09-21T06:19:43;20.13;;;4.13;;
69317;SDS011;56457;52.190;4.440;2022-09-21T06:20:43;18.60;;;5.27;;
69317;SDS011;56457;52.190;4.440;2022-09-21T06:21:44;23.33;;;4.57;;
69317;SDS011;56457;52.190;4.440;2022-09-21T06:22:44;24.25;;;5.32;;
69317;SDS011;56457;52.190;4.440;2022-09-21T06:23:45;26.33;;;4.50;;
69317;SDS011;56457;52.190;4.440;2022-09-21T06:24:45;16.40;;;4.75;;
69317;SDS011;56457;52.190;4.440;2022-09-21T06:25:52;24.77;;;5.28;;
69317;SDS011;56457;52.190;4.440;2022-09-21T06:26:53;31.38;;;4.65;;
69317;SDS011;56457;52.190;4.440;2022-09-21T06:27:53;21.15;;;4.65;;
69317;SDS011;56457;52.190;4.440;2022-09-21T06:28:55;20.30;;;4.82;;
69317;SDS011;56457;52.190;4.440;2022-09-21T06:29:57;19.15;;;5.43;;
69317;SDS011;56457;52.190;4.440;2022-09-21T06:30:59;27.63;;;6.03;;
69317;SDS011;56457;52.190;4.440;2022-09-21T06:32:00;29.45;;;6.05;;
69317;SDS011;56457;52.190;4.440;2022-09-21T06:33:03;27.48;;;4.80;;
69317;SDS011;56457;52.190;4.440;2022-09-21T06:34:04;38.47;;;6.07;;
69317;SDS011;56457;52.190;4.440;2022-09-21T06:35:06;34.35;;;5.50;;
69317;SDS011;56457;52.190;4.440;2022-09-21T06:36:07;29.08;;;5.13;;
69317;SDS011;56457;52.190;4.440;2022-09-21T06:37:08;15.77;;;4.60;;
69317;SDS011;56457;52.190;4.440;2022-09-21T06:38:08;28.42;;;4.75;;
69317;SDS011;56457;52.190;4.440;2022-09-21T06:39:08;33.42;;;4.25;;
69317;SDS011;56457;52.190;4.440;2022-09-21T06:40:09;22.02;;;4.75;;
69317;SDS011;56457;52.190;4.440;2022-09-21T06:41:10;25.85;;;5.43;;
69317;SDS011;56457;52.190;4.440;2022-09-21T06:42:10;25.38;;;5.00;;
69317;SDS011;56457;52.190;4.440;2022-09-21T06:43:10;20.70;;;4.60;;
69317;SDS011;56457;52.190;4.440;2022-09-21T06:44:11;22.65;;;4.93;;
69317;SDS011;56457;52.190;4.440;2022-09-21T06:45:11;23.63;;;4.53;;
69317;SDS011;56457;52.190;4.440;2022-09-21T06:46:12;22.85;;;4.60;;
69317;SDS011;56457;52.190;4.440;2022-09-21T06:47:12;16.17;;;4.63;;
69317;SDS011;56457;52.190;4.440;2022-09-21T06:48:13;27.07;;;4.90;;
69317;SDS011;56457;52.190;4.440;2022-09-21T06:49:13;17.13;;;5.10;;
69317;SDS011;56457;52.190;4.440;2022-09-21T06:50:13;24.43;;;5.33;;
69317;SDS011;56457;52.190;4.440;2022-09-21T06:51:14;19.75;;;4.57;;
69317;SDS011;56457;52.190;4.440;2022-09-21T06:52:14;26.77;;;4.80;;
69317;SDS011;56457;52.190;4.440;2022-09-21T06:53:15;20.85;;;5.38;;
69317;SDS011;56457;52.190;4.440;2022-09-21T06:54:17;21.83;;;5.32;;
69317;SDS011;56457;52.190;4.440;2022-09-21T06:55:17;28.20;;;4.73;;
69317;SDS011;56457;52.190;4.440;2022-09-21T06:56:18;15.50;;;5.10;;